createdAt,value
2019-04-29T00:00:48.984Z,6.42
2019-04-29T00:01:55.175Z,5.28
2019-04-29T00:03:00.190Z,6.03
2019-04-29T00:04:05.331Z,6.03
2019-04-29T00:05:11.124Z,7.70
2019-04-29T00:06:16.589Z,4.80
2019-04-29T00:07:22.023Z,5.55
2019-04-29T00:08:27.221Z,6.37
2019-04-29T00:09:32.280Z,4.95
2019-04-29T00:10:37.744Z,6.72
2019-04-29T00:11:42.950Z,4.90
2019-04-29T00:12:48.053Z,5.47
2019-04-29T00:13:53.299Z,5.75
2019-04-29T00:15:16.176Z,7.25
2019-04-29T00:16:39.583Z,6.33
2019-04-29T00:17:56.941Z,5.97
2019-04-29T00:19:39.365Z,5.67
2019-04-29T00:20:49.650Z,5.33
2019-04-29T00:21:54.772Z,7.40
2019-04-29T00:22:59.702Z,4.87
2019-04-29T00:24:10.493Z,7.22
2019-04-29T00:25:12.427Z,5.12
2019-04-29T00:26:17.587Z,7.45
2019-04-29T00:27:22.665Z,5.80
2019-04-29T00:28:27.898Z,5.50
2019-04-29T00:29:32.862Z,5.30
2019-04-29T00:30:37.838Z,6.72
2019-04-29T00:31:42.925Z,5.72
2019-04-29T00:32:47.925Z,9.85
2019-04-29T00:33:52.896Z,8.03
2019-04-29T00:34:57.889Z,5.25
2019-04-29T00:36:03.163Z,5.10
2019-04-29T00:37:31.400Z,4.78
2019-04-29T00:38:55.357Z,8.33
2019-04-29T00:40:17.387Z,4.78
2019-04-29T00:41:40.330Z,4.65
2019-04-29T00:42:52.562Z,5.12
2019-04-29T00:44:00.691Z,8.38
2019-04-29T00:45:06.117Z,5.85
2019-04-29T00:46:11.914Z,6.05
2019-04-29T00:47:16.880Z,5.42
2019-04-29T00:48:22.245Z,6.37
2019-04-29T00:49:27.389Z,6.40
2019-04-29T00:50:32.787Z,5.85
2019-04-29T00:51:38.076Z,4.72
2019-04-29T00:52:43.216Z,6.50
2019-04-29T00:53:49.235Z,5.92
2019-04-29T00:55:00.599Z,4.65
2019-04-29T00:56:06.009Z,5.08
2019-04-29T00:57:11.004Z,4.83
2019-04-29T00:58:16.145Z,6.20
2019-04-29T00:59:21.199Z,6.25
2019-04-29T01:00:38.138Z,5.15
2019-04-29T01:01:46.551Z,7.12
2019-04-29T01:02:51.517Z,4.58
2019-04-29T01:03:56.583Z,6.58
2019-04-29T01:05:01.732Z,10.72
2019-04-29T01:06:06.956Z,4.90
2019-04-29T01:07:11.984Z,6.25
2019-04-29T01:08:17.065Z,6.58
2019-04-29T01:09:23.838Z,7.55
2019-04-29T01:10:29.365Z,5.67
2019-04-29T01:11:35.413Z,6.55
2019-04-29T01:12:40.450Z,5.00
2019-04-29T01:13:45.854Z,4.85
2019-04-29T01:14:51.027Z,6.47
2019-04-29T01:15:56.197Z,4.97
2019-04-29T01:17:01.346Z,4.75
2019-04-29T01:18:06.645Z,5.67
2019-04-29T01:19:11.762Z,5.28
2019-04-29T01:20:20.196Z,5.15
2019-04-29T01:21:25.296Z,6.47
2019-04-29T01:22:30.849Z,5.42
2019-04-29T01:23:35.877Z,8.40
2019-04-29T01:24:41.071Z,9.00
2019-04-29T01:25:48.263Z,4.83
2019-04-29T01:27:15.265Z,6.80
2019-04-29T01:28:28.662Z,7.95
2019-04-29T01:29:33.845Z,9.43
2019-04-29T01:31:12.359Z,6.45
2019-04-29T01:32:17.605Z,5.50
2019-04-29T01:33:24.282Z,5.22
2019-04-29T01:34:38.455Z,5.00
2019-04-29T01:35:43.843Z,5.28
2019-04-29T01:36:48.837Z,7.47
2019-04-29T01:37:53.854Z,6.28
2019-04-29T01:39:01.310Z,11.08
2019-04-29T01:40:37.861Z,6.60
2019-04-29T01:41:53.945Z,6.62
2019-04-29T01:42:59.482Z,8.80
2019-04-29T01:44:05.965Z,7.10
2019-04-29T01:45:11.159Z,8.55
2019-04-29T01:46:18.949Z,5.87
2019-04-29T01:47:24.082Z,7.70
2019-04-29T01:48:29.533Z,7.20
2019-04-29T01:49:34.828Z,8.08
2019-04-29T01:50:40.061Z,7.85
2019-04-29T01:51:45.069Z,6.42
2019-04-29T01:52:50.332Z,7.33
2019-04-29T01:53:55.499Z,9.70
2019-04-29T01:55:01.073Z,7.83
2019-04-29T01:56:06.230Z,7.17
2019-04-29T01:57:11.348Z,6.33
2019-04-29T01:58:16.452Z,5.55
2019-04-29T01:59:21.603Z,5.12
2019-04-29T02:00:26.912Z,7.53
2019-04-29T02:01:31.938Z,9.58
2019-04-29T02:02:37.129Z,7.72
2019-04-29T02:03:42.278Z,8.15
2019-04-29T02:04:47.386Z,8.28
2019-04-29T02:05:52.625Z,5.40
2019-04-29T02:06:57.562Z,10.45
2019-04-29T02:08:02.530Z,6.55
2019-04-29T02:09:11.212Z,5.87
2019-04-29T02:10:28.488Z,7.92
2019-04-29T02:11:33.703Z,9.43
2019-04-29T02:12:38.689Z,6.25
2019-04-29T02:13:43.879Z,9.28
2019-04-29T02:14:49.001Z,7.17
2019-04-29T02:15:54.226Z,6.17
2019-04-29T02:16:59.609Z,7.40
2019-04-29T02:18:04.817Z,9.38
2019-04-29T02:19:10.066Z,6.50
2019-04-29T02:20:15.308Z,7.12
2019-04-29T02:21:20.430Z,8.33
2019-04-29T02:22:45.912Z,7.83
2019-04-29T02:24:02.580Z,8.60
2019-04-29T02:25:20.742Z,6.75
2019-04-29T02:26:26.043Z,6.78
2019-04-29T02:27:31.093Z,6.35
2019-04-29T02:28:36.358Z,6.05
2019-04-29T02:29:41.322Z,6.65
2019-04-29T02:30:51.751Z,6.03
2019-04-29T02:31:56.654Z,5.28
2019-04-29T02:33:01.923Z,9.73
2019-04-29T02:34:07.267Z,7.45
2019-04-29T02:35:12.283Z,6.92
2019-04-29T02:36:17.318Z,9.05
2019-04-29T02:37:28.381Z,10.05
2019-04-29T02:38:42.166Z,5.22
2019-04-29T02:39:53.324Z,9.70
2019-04-29T02:41:06.404Z,8.38
2019-04-29T02:42:45.319Z,6.70
2019-04-29T02:43:52.296Z,6.20
2019-04-29T02:45:04.308Z,7.33
2019-04-29T02:46:09.389Z,5.85
2019-04-29T02:47:14.531Z,16.85
2019-04-29T02:48:19.590Z,6.08
2019-04-29T02:49:24.628Z,8.50
2019-04-29T02:50:29.751Z,6.15
2019-04-29T02:51:52.273Z,6.85
2019-04-29T02:52:57.373Z,8.35
2019-04-29T02:54:02.326Z,7.22
2019-04-29T02:55:08.627Z,8.65
2019-04-29T02:56:13.908Z,6.25
2019-04-29T02:57:36.628Z,9.98
2019-04-29T02:58:47.882Z,6.08
2019-04-29T02:59:55.752Z,7.70
2019-04-29T03:01:08.951Z,7.80
2019-04-29T03:02:30.706Z,9.08
2019-04-29T03:03:53.242Z,7.35
2019-04-29T03:05:13.611Z,6.78
2019-04-29T03:06:18.756Z,4.90
2019-04-29T03:07:23.898Z,7.15
2019-04-29T03:08:29.098Z,7.50
2019-04-29T03:09:45.181Z,10.03
2019-04-29T03:10:50.362Z,6.55
2019-04-29T03:11:55.754Z,6.20
2019-04-29T03:13:00.841Z,8.18
2019-04-29T03:14:06.175Z,9.40
2019-04-29T03:15:11.805Z,6.58
2019-04-29T03:16:18.743Z,6.15
2019-04-29T03:17:23.870Z,6.20
2019-04-29T03:18:31.245Z,6.20
2019-04-29T03:19:38.768Z,6.17
2019-04-29T03:20:49.446Z,7.35
2019-04-29T03:21:56.764Z,7.70
2019-04-29T03:23:09.285Z,8.38
2019-04-29T03:24:14.496Z,8.00
2019-04-29T03:25:19.883Z,7.70
2019-04-29T03:26:24.927Z,8.48
2019-04-29T03:27:30.714Z,5.50
2019-04-29T03:28:36.102Z,6.45
2019-04-29T03:29:41.083Z,5.25
2019-04-29T03:30:46.475Z,6.70
2019-04-29T03:31:56.053Z,8.18
2019-04-29T03:33:01.264Z,5.70
2019-04-29T03:34:06.274Z,7.80
2019-04-29T03:35:11.599Z,7.65
2019-04-29T03:36:16.668Z,7.62
2019-04-29T03:37:21.692Z,8.83
2019-04-29T03:38:27.465Z,5.85
2019-04-29T03:39:32.564Z,6.35
2019-04-29T03:40:37.905Z,7.55
2019-04-29T03:41:43.134Z,7.22
2019-04-29T03:42:48.260Z,6.65
2019-04-29T03:43:53.451Z,8.20
2019-04-29T03:44:58.538Z,9.08
2019-04-29T03:46:03.830Z,8.15
2019-04-29T03:47:08.907Z,10.35
2019-04-29T03:48:13.927Z,9.28
2019-04-29T03:49:19.103Z,6.37
2019-04-29T03:50:24.126Z,6.50
2019-04-29T03:51:29.463Z,10.40
2019-04-29T03:52:34.540Z,9.85
2019-04-29T03:53:39.539Z,7.15
2019-04-29T03:54:44.942Z,7.33
2019-04-29T03:55:52.155Z,8.40
2019-04-29T03:56:57.306Z,7.30
2019-04-29T03:58:02.602Z,8.98
2019-04-29T03:59:07.579Z,9.05
2019-04-29T04:00:14.558Z,6.30
2019-04-29T04:01:28.498Z,7.50
2019-04-29T04:02:42.638Z,6.28
2019-04-29T04:03:51.998Z,9.88
2019-04-29T04:05:21.870Z,7.97
2019-04-29T04:06:45.334Z,9.55
2019-04-29T04:07:54.318Z,8.58
2019-04-29T04:09:08.604Z,7.10
2019-04-29T04:10:14.146Z,6.65
2019-04-29T04:11:19.587Z,7.87
2019-04-29T04:12:24.472Z,5.87
2019-04-29T04:13:29.751Z,6.50
2019-04-29T04:14:34.827Z,7.87
2019-04-29T04:15:40.037Z,9.35
2019-04-29T04:17:20.651Z,9.23
2019-04-29T04:18:27.698Z,8.63
2019-04-29T04:19:33.305Z,8.80
2019-04-29T04:20:38.518Z,8.15
2019-04-29T04:21:43.497Z,8.45
2019-04-29T04:22:48.897Z,8.15
2019-04-29T04:23:57.976Z,7.22
2019-04-29T04:25:00.734Z,8.40
2019-04-29T04:26:06.013Z,6.05
2019-04-29T04:27:11.160Z,9.63
2019-04-29T04:28:16.346Z,10.53
2019-04-29T04:29:21.842Z,10.13
2019-04-29T04:30:27.422Z,14.73
2019-04-29T04:31:32.477Z,8.05
2019-04-29T04:32:37.781Z,9.18
2019-04-29T04:33:43.992Z,9.90
2019-04-29T04:34:49.237Z,6.97
2019-04-29T04:35:54.437Z,14.47
2019-04-29T04:37:00.409Z,7.00
2019-04-29T04:38:05.958Z,14.00
2019-04-29T04:39:11.278Z,9.95
2019-04-29T04:40:23.486Z,8.08
2019-04-29T04:41:28.833Z,8.15
2019-04-29T04:42:34.595Z,9.90
2019-04-29T04:43:40.361Z,8.50
2019-04-29T04:44:48.920Z,11.65
2019-04-29T04:45:54.013Z,8.53
2019-04-29T04:46:59.357Z,8.38
2019-04-29T04:48:04.511Z,9.78
2019-04-29T04:49:09.580Z,9.73
2019-04-29T04:50:14.876Z,6.80
2019-04-29T04:51:21.072Z,7.83
2019-04-29T04:52:26.356Z,17.62
2019-04-29T04:53:31.322Z,19.20
2019-04-29T04:54:36.806Z,7.95
2019-04-29T04:55:43.129Z,8.48
2019-04-29T04:56:48.362Z,12.07
2019-04-29T04:57:53.797Z,8.40
2019-04-29T04:58:58.917Z,9.60
2019-04-29T05:00:06.364Z,13.55
2019-04-29T05:01:11.711Z,11.93
2019-04-29T05:02:16.963Z,11.75
2019-04-29T05:03:22.133Z,8.75
2019-04-29T05:04:27.410Z,9.08
2019-04-29T05:05:32.819Z,13.28
2019-04-29T05:06:37.913Z,18.50
2019-04-29T05:07:42.995Z,14.75
2019-04-29T05:08:48.154Z,16.55
2019-04-29T05:09:53.358Z,16.32
2019-04-29T05:10:58.511Z,15.23
2019-04-29T05:12:03.804Z,8.90
2019-04-29T05:13:09.039Z,12.50
2019-04-29T05:14:14.724Z,13.93
2019-04-29T05:15:20.147Z,9.58
2019-04-29T05:16:25.394Z,12.47
2019-04-29T05:17:30.660Z,13.22
2019-04-29T05:18:35.656Z,14.13
2019-04-29T05:19:40.858Z,16.30
2019-04-29T05:20:46.064Z,13.03
2019-04-29T05:21:51.138Z,9.43
2019-04-29T05:23:02.013Z,13.58
2019-04-29T05:24:07.069Z,15.55
2019-04-29T05:25:12.370Z,10.25
2019-04-29T05:26:17.411Z,18.10
2019-04-29T05:27:22.590Z,11.50
2019-04-29T05:28:27.565Z,13.62
2019-04-29T05:29:32.602Z,11.12
2019-04-29T05:30:38.060Z,12.60
2019-04-29T05:31:43.332Z,12.53
2019-04-29T05:32:48.706Z,14.50
2019-04-29T05:33:53.855Z,19.77
2019-04-29T05:35:01.314Z,20.43
2019-04-29T05:36:38.273Z,16.60
2019-04-29T05:37:56.674Z,16.65
2019-04-29T05:39:08.949Z,13.38
2019-04-29T05:40:33.077Z,13.58
2019-04-29T05:41:38.328Z,17.02
2019-04-29T05:42:43.392Z,11.85
2019-04-29T05:44:13.355Z,13.88
2019-04-29T05:45:26.387Z,12.33
2019-04-29T05:46:56.401Z,11.00
2019-04-29T05:48:07.613Z,14.65
2019-04-29T05:49:14.645Z,13.10
2019-04-29T05:50:47.617Z,9.83
2019-04-29T05:51:57.491Z,13.03
2019-04-29T05:53:16.365Z,15.00
2019-04-29T05:54:21.599Z,14.03
2019-04-29T05:55:26.816Z,11.88
2019-04-29T05:56:31.786Z,17.20
2019-04-29T05:57:36.958Z,20.45
2019-04-29T05:58:42.096Z,13.30
2019-04-29T05:59:49.457Z,11.63
2019-04-29T06:01:01.112Z,11.63
2019-04-29T06:02:06.208Z,13.00
2019-04-29T06:03:11.332Z,10.90
2019-04-29T06:04:18.175Z,17.42
2019-04-29T06:05:23.645Z,15.80
2019-04-29T06:06:28.798Z,12.37
2019-04-29T06:07:34.120Z,12.88
2019-04-29T06:08:39.549Z,13.05
2019-04-29T06:09:47.024Z,14.45
2019-04-29T06:10:52.142Z,12.93
2019-04-29T06:11:57.339Z,11.70
2019-04-29T06:13:02.684Z,14.07
2019-04-29T06:14:08.206Z,12.55
2019-04-29T06:15:13.521Z,12.37
2019-04-29T06:16:20.877Z,14.38
2019-04-29T06:17:25.641Z,14.53
2019-04-29T06:18:31.189Z,22.98
2019-04-29T06:19:39.329Z,28.40
2019-04-29T06:20:44.559Z,21.77
2019-04-29T06:21:49.865Z,14.85
2019-04-29T06:22:54.954Z,13.30
2019-04-29T06:24:04.356Z,17.12
2019-04-29T06:25:07.265Z,18.75
2019-04-29T06:26:12.412Z,16.57
2019-04-29T06:27:17.520Z,13.28
2019-04-29T06:28:26.421Z,16.55
2019-04-29T06:29:31.182Z,14.80
2019-04-29T06:30:38.753Z,14.58
2019-04-29T06:31:43.222Z,14.55
2019-04-29T06:32:48.202Z,17.52
2019-04-29T06:33:53.282Z,18.62
2019-04-29T06:34:58.368Z,19.55
2019-04-29T06:36:03.439Z,14.00
2019-04-29T06:37:08.623Z,19.20
2019-04-29T06:38:14.177Z,14.38
2019-04-29T06:39:19.090Z,16.90
2019-04-29T06:40:24.152Z,14.98
2019-04-29T06:41:29.380Z,20.75
2019-04-29T06:42:34.581Z,19.87
2019-04-29T06:43:39.673Z,20.25
2019-04-29T06:44:49.118Z,17.35
2019-04-29T06:45:52.305Z,16.52
2019-04-29T06:46:57.277Z,19.98
2019-04-29T06:48:02.437Z,20.02
2019-04-29T06:49:10.334Z,17.98
2019-04-29T06:50:14.975Z,24.25
2019-04-29T06:51:19.968Z,20.00
2019-04-29T06:52:25.365Z,25.62
2019-04-29T06:53:30.601Z,21.90
2019-04-29T06:54:35.613Z,22.37
2019-04-29T06:55:40.682Z,20.17
2019-04-29T06:56:45.783Z,23.42
2019-04-29T06:57:50.875Z,34.85
2019-04-29T06:58:56.131Z,27.65
2019-04-29T07:00:01.156Z,28.05
2019-04-29T07:01:06.306Z,26.60
2019-04-29T07:02:14.414Z,26.20
2019-04-29T07:03:20.908Z,22.65
2019-04-29T07:04:25.284Z,25.77
2019-04-29T07:05:30.508Z,27.62
2019-04-29T07:06:35.855Z,30.48
2019-04-29T07:07:40.985Z,31.23
2019-04-29T07:08:46.088Z,24.63
2019-04-29T07:09:51.138Z,30.43
2019-04-29T07:11:01.214Z,21.42
2019-04-29T07:12:03.433Z,26.25
2019-04-29T07:13:08.823Z,28.80
2019-04-29T07:14:13.955Z,37.67
2019-04-29T07:15:19.056Z,36.40
2019-04-29T07:16:27.227Z,29.63
2019-04-29T07:17:30.919Z,31.00
2019-04-29T07:18:40.323Z,31.97
2019-04-29T07:19:42.939Z,33.55
2019-04-29T07:20:48.323Z,26.95
2019-04-29T07:21:56.313Z,30.85
2019-04-29T07:23:00.690Z,30.10
2019-04-29T07:24:06.787Z,36.53
2019-04-29T07:25:11.853Z,26.95
2019-04-29T07:26:17.003Z,28.17
2019-04-29T07:27:22.054Z,25.90
2019-04-29T07:28:27.143Z,29.75
2019-04-29T07:29:32.981Z,32.48
2019-04-29T07:30:59.917Z,33.02
2019-04-29T07:31:45.187Z,30.00
2019-04-29T07:32:50.280Z,29.30
2019-04-29T07:33:57.935Z,28.87
2019-04-29T07:35:05.893Z,35.35
2019-04-29T07:36:11.085Z,29.32
2019-04-29T07:37:16.852Z,28.83
2019-04-29T07:38:22.130Z,29.63
2019-04-29T07:39:31.661Z,32.85
2019-04-29T07:40:34.231Z,29.45
2019-04-29T07:41:39.469Z,43.78
2019-04-29T07:42:44.645Z,46.98
2019-04-29T07:43:49.687Z,57.93
2019-04-29T07:45:43.583Z,47.33
2019-04-29T07:46:56.675Z,45.60
2019-04-29T07:47:57.171Z,47.10
2019-04-29T07:49:05.584Z,47.70
2019-04-29T07:50:10.003Z,50.90
2019-04-29T07:51:15.110Z,46.42
2019-04-29T07:52:20.418Z,43.85
2019-04-29T07:53:35.049Z,49.75
2019-04-29T07:54:32.150Z,47.85
2019-04-29T07:55:37.190Z,45.05
2019-04-29T07:56:43.628Z,45.23
2019-04-29T07:57:52.131Z,42.27
2019-04-29T07:58:58.879Z,42.83
2019-04-29T08:00:02.877Z,52.43
2019-04-29T08:01:07.955Z,40.40
2019-04-29T08:02:12.986Z,47.58
2019-04-29T08:03:18.062Z,48.80
2019-04-29T08:04:23.270Z,42.35
2019-04-29T08:05:29.814Z,49.42
2019-04-29T08:06:38.257Z,43.58
2019-04-29T08:07:42.534Z,37.33
2019-04-29T08:08:55.122Z,43.48
2019-04-29T08:09:56.204Z,40.65
2019-04-29T08:11:01.410Z,44.95
2019-04-29T08:12:06.588Z,44.85
2019-04-29T08:13:12.730Z,54.48
2019-04-29T08:14:19.119Z,42.23
2019-04-29T08:15:24.418Z,48.48
2019-04-29T08:16:29.647Z,44.83
2019-04-29T08:17:34.650Z,54.55
2019-04-29T08:18:39.928Z,53.87
2019-04-29T08:19:44.940Z,48.73
2019-04-29T08:20:50.254Z,51.48
2019-04-29T08:21:55.366Z,53.55
2019-04-29T08:23:02.588Z,58.30
2019-04-29T08:24:11.610Z,44.80
2019-04-29T08:25:14.656Z,53.98
2019-04-29T08:26:19.689Z,47.23
2019-04-29T08:27:24.783Z,46.45
2019-04-29T08:28:30.133Z,50.35
2019-04-29T08:29:35.832Z,52.93
2019-04-29T08:30:45.759Z,45.85
2019-04-29T08:31:52.045Z,48.80
2019-04-29T08:32:55.432Z,43.65
2019-04-29T08:34:01.006Z,51.33
2019-04-29T08:35:06.397Z,51.65
2019-04-29T08:36:11.435Z,45.00
2019-04-29T08:37:16.630Z,40.23
2019-04-29T08:38:21.725Z,42.48
2019-04-29T08:39:29.530Z,43.78
2019-04-29T08:40:34.543Z,43.48
2019-04-29T08:41:39.703Z,36.73
2019-04-29T08:42:49.295Z,37.83
2019-04-29T08:44:21.490Z,33.53
2019-04-29T08:45:40.471Z,32.73
2019-04-29T08:47:04.503Z,39.73
2019-04-29T08:48:09.901Z,42.62
2019-04-29T08:49:15.234Z,40.00
2019-04-29T08:50:20.515Z,38.30
2019-04-29T08:51:25.587Z,46.05
2019-04-29T08:52:30.616Z,45.00
2019-04-29T08:53:35.758Z,40.60
2019-04-29T08:54:40.722Z,40.80
2019-04-29T08:55:45.776Z,44.98
2019-04-29T08:57:02.183Z,44.27
2019-04-29T08:57:57.565Z,54.38
2019-04-29T08:59:02.555Z,52.43
2019-04-29T09:00:09.372Z,46.70
2019-04-29T09:01:14.420Z,55.78
2019-04-29T09:02:33.684Z,52.53
2019-04-29T09:03:39.663Z,57.53
2019-04-29T09:04:33.832Z,54.60
2019-04-29T09:05:41.667Z,54.35
2019-04-29T09:06:46.739Z,49.27
2019-04-29T09:07:57.136Z,51.55
2019-04-29T09:08:59.836Z,44.95
2019-04-29T09:10:05.473Z,42.48
2019-04-29T09:11:12.810Z,44.33
2019-04-29T09:12:19.200Z,41.77
2019-04-29T09:13:24.290Z,42.50
2019-04-29T09:14:29.789Z,42.27
2019-04-29T09:15:35.309Z,43.75
2019-04-29T09:16:40.549Z,43.95
2019-04-29T09:17:45.847Z,37.80
2019-04-29T09:18:51.078Z,30.60
2019-04-29T09:19:56.209Z,34.03
2019-04-29T09:21:01.205Z,32.10
2019-04-29T09:22:08.081Z,38.23
2019-04-29T09:23:15.739Z,36.42
2019-04-29T09:24:20.864Z,30.75
2019-04-29T09:26:01.734Z,34.60
2019-04-29T09:27:16.205Z,33.40
2019-04-29T09:28:27.004Z,32.75
2019-04-29T09:29:30.669Z,30.02
2019-04-29T09:30:38.502Z,34.73
2019-04-29T09:31:42.481Z,32.17
2019-04-29T09:32:47.575Z,27.52
2019-04-29T09:34:06.009Z,27.10
2019-04-29T09:35:00.539Z,28.73
2019-04-29T09:36:09.301Z,27.82
2019-04-29T09:37:12.596Z,25.20
2019-04-29T09:38:17.706Z,26.90
2019-04-29T09:39:23.004Z,28.35
2019-04-29T09:40:30.132Z,28.62
2019-04-29T09:41:48.626Z,32.73
2019-04-29T09:43:00.704Z,22.65
2019-04-29T09:44:23.412Z,29.48
2019-04-29T09:45:34.200Z,28.75
2019-04-29T09:46:39.347Z,30.97
2019-04-29T09:47:44.735Z,25.48
2019-04-29T09:48:49.747Z,24.40
2019-04-29T09:49:55.010Z,33.00
2019-04-29T09:51:00.111Z,27.02
2019-04-29T09:52:05.702Z,29.87
2019-04-29T09:53:10.894Z,27.35
2019-04-29T09:54:16.277Z,28.20
2019-04-29T09:55:22.158Z,25.68
2019-04-29T09:56:27.484Z,29.18
2019-04-29T09:57:34.174Z,25.17
2019-04-29T09:58:39.309Z,29.77
2019-04-29T09:59:49.586Z,33.60
2019-04-29T10:01:22.611Z,28.47
2019-04-29T10:02:36.484Z,30.20
2019-04-29T10:04:02.095Z,28.47
2019-04-29T10:05:24.988Z,24.07
2019-04-29T10:06:32.773Z,28.83
2019-04-29T10:07:38.100Z,26.10
2019-04-29T10:08:43.367Z,31.25
2019-04-29T10:09:56.838Z,25.62
2019-04-29T10:10:55.332Z,26.40
2019-04-29T10:12:00.494Z,26.10
2019-04-29T10:13:05.855Z,25.90
2019-04-29T10:14:11.014Z,24.45
2019-04-29T10:15:17.913Z,20.60
2019-04-29T10:16:39.459Z,24.82
2019-04-29T10:17:55.707Z,27.93
2019-04-29T10:19:05.311Z,23.90
2019-04-29T10:20:33.781Z,30.82
2019-04-29T10:21:39.269Z,29.82
2019-04-29T10:22:44.377Z,25.97
2019-04-29T10:23:49.725Z,25.27
2019-04-29T10:24:54.903Z,18.75
2019-04-29T10:26:00.593Z,24.57
2019-04-29T10:27:07.339Z,22.58
2019-04-29T10:28:12.602Z,18.98
2019-04-29T10:29:20.316Z,18.95
2019-04-29T10:30:26.792Z,25.02
2019-04-29T10:31:33.577Z,22.65
2019-04-29T10:32:42.334Z,19.98
2019-04-29T10:33:50.234Z,19.67
2019-04-29T10:34:54.942Z,20.25
2019-04-29T10:36:00.199Z,20.02
2019-04-29T10:37:06.613Z,18.35
2019-04-29T10:38:11.922Z,22.40
2019-04-29T10:39:42.559Z,19.07
2019-04-29T10:41:05.314Z,22.32
2019-04-29T10:42:10.923Z,20.48
2019-04-29T10:43:41.313Z,22.50
2019-04-29T10:44:56.884Z,22.85
2019-04-29T10:46:21.196Z,22.07
2019-04-29T10:47:43.904Z,18.80
2019-04-29T10:48:59.119Z,18.37
2019-04-29T10:50:10.707Z,20.12
2019-04-29T10:51:16.293Z,20.80
2019-04-29T10:52:21.535Z,19.65
2019-04-29T10:53:28.886Z,23.02
2019-04-29T10:54:34.004Z,19.17
2019-04-29T10:55:39.523Z,17.45
2019-04-29T10:56:44.782Z,22.90
2019-04-29T10:57:51.433Z,20.60
2019-04-29T10:58:56.681Z,24.70
2019-04-29T11:00:24.167Z,25.23
2019-04-29T11:02:25.567Z,18.82
2019-04-29T11:03:30.986Z,23.27
2019-04-29T11:04:38.028Z,24.25
2019-04-29T11:05:59.997Z,26.82
2019-04-29T11:06:53.805Z,24.82
2019-04-29T11:08:05.575Z,22.70
2019-04-29T11:09:28.077Z,21.87
2019-04-29T11:10:33.371Z,20.90
2019-04-29T11:11:38.554Z,21.17
2019-04-29T11:12:43.954Z,20.75
2019-04-29T11:13:50.618Z,20.65
2019-04-29T11:14:55.802Z,14.70
2019-04-29T11:16:00.976Z,19.00
2019-04-29T11:17:15.865Z,22.55
2019-04-29T11:18:12.901Z,18.37
2019-04-29T11:19:19.212Z,18.10
2019-04-29T11:20:24.396Z,21.30
2019-04-29T11:21:31.279Z,22.07
2019-04-29T11:22:44.360Z,20.27
2019-04-29T11:23:58.002Z,22.98
2019-04-29T11:25:14.631Z,14.33
2019-04-29T11:26:44.622Z,20.00
2019-04-29T11:27:56.019Z,17.20
2019-04-29T11:29:00.206Z,19.85
2019-04-29T11:30:07.980Z,22.10
2019-04-29T11:31:14.030Z,21.93
2019-04-29T11:32:36.376Z,15.55
2019-04-29T11:34:00.496Z,22.80
2019-04-29T11:35:13.568Z,17.85
2019-04-29T11:36:20.611Z,19.10
2019-04-29T11:37:25.757Z,23.15
2019-04-29T11:38:33.359Z,18.60
2019-04-29T11:39:37.713Z,18.82
2019-04-29T11:40:44.081Z,19.95
2019-04-29T11:41:50.289Z,15.30
2019-04-29T11:42:56.727Z,19.90
2019-04-29T11:44:01.818Z,19.82
2019-04-29T11:45:09.222Z,13.38
2019-04-29T11:46:15.595Z,13.90
2019-04-29T11:47:24.902Z,18.77
2019-04-29T11:48:27.881Z,18.00
2019-04-29T11:49:39.010Z,18.80
2019-04-29T11:50:57.933Z,15.68
2019-04-29T11:52:09.767Z,15.88
2019-04-29T11:53:11.360Z,15.93
2019-04-29T11:54:18.105Z,17.98
2019-04-29T11:55:23.507Z,18.07
2019-04-29T11:56:28.876Z,16.55
2019-04-29T11:57:46.787Z,23.85
2019-04-29T11:59:04.919Z,24.77
2019-04-29T12:00:24.503Z,21.60
2019-04-29T12:01:47.120Z,19.02
2019-04-29T12:02:57.406Z,17.60
2019-04-29T12:04:05.766Z,20.00
2019-04-29T12:05:31.368Z,20.37
2019-04-29T12:06:36.762Z,16.90
2019-04-29T12:07:41.842Z,18.57
2019-04-29T12:08:48.260Z,18.45
2019-04-29T12:09:53.787Z,16.57
2019-04-29T12:11:07.298Z,19.77
2019-04-29T12:12:07.907Z,19.12
2019-04-29T12:13:22.926Z,17.67
2019-04-29T12:14:37.998Z,17.05
2019-04-29T12:15:57.217Z,19.48
2019-04-29T12:17:12.515Z,19.00
2019-04-29T12:18:20.227Z,17.48
2019-04-29T12:19:28.614Z,18.87
2019-04-29T12:20:41.514Z,17.02
2019-04-29T12:21:46.672Z,18.25
2019-04-29T12:22:52.056Z,16.37
2019-04-29T12:23:59.006Z,16.32
2019-04-29T12:25:04.390Z,22.32
2019-04-29T12:26:11.297Z,16.23
2019-04-29T12:27:19.882Z,17.00
2019-04-29T12:28:23.379Z,20.40
2019-04-29T12:29:28.683Z,15.72
2019-04-29T12:30:37.590Z,14.10
2019-04-29T12:32:00.646Z,14.35
2019-04-29T12:33:28.456Z,8.90
2019-04-29T12:34:45.388Z,13.50
2019-04-29T12:36:03.344Z,15.58
2019-04-29T12:37:15.853Z,17.67
2019-04-29T12:38:50.737Z,16.77
2019-04-29T12:40:23.924Z,14.28
2019-04-29T12:41:49.388Z,15.75
2019-04-29T12:43:11.356Z,14.20
2019-04-29T12:44:35.292Z,17.07
2019-04-29T12:45:47.310Z,15.05
2019-04-29T12:46:58.575Z,15.98
2019-04-29T12:48:06.465Z,15.68
2019-04-29T12:49:13.847Z,15.70
2019-04-29T12:50:21.700Z,13.45
2019-04-29T12:51:25.270Z,13.65
2019-04-29T12:52:30.347Z,13.83
2019-04-29T12:53:35.778Z,17.27
2019-04-29T12:54:41.977Z,14.15
2019-04-29T12:55:53.176Z,16.77
2019-04-29T12:56:55.872Z,13.65
2019-04-29T12:58:01.358Z,13.22
2019-04-29T12:59:06.728Z,16.77
2019-04-29T13:00:13.695Z,14.95
2019-04-29T13:01:50.847Z,14.75
2019-04-29T13:03:02.360Z,17.12
2019-04-29T13:04:44.998Z,17.37
2019-04-29T13:06:02.632Z,15.13
2019-04-29T13:07:38.812Z,12.95
2019-04-29T13:08:46.838Z,15.45
2019-04-29T13:09:53.551Z,15.03
2019-04-29T13:11:01.508Z,21.60
2019-04-29T13:12:19.101Z,15.78
2019-04-29T13:13:15.673Z,16.30
2019-04-29T13:14:22.399Z,16.65
2019-04-29T13:15:43.919Z,12.63
2019-04-29T13:17:14.495Z,15.55
2019-04-29T13:18:23.017Z,11.73
2019-04-29T13:19:37.363Z,15.83
2019-04-29T13:20:45.640Z,15.13
2019-04-29T13:21:49.295Z,12.10
2019-04-29T13:22:54.364Z,11.80
2019-04-29T13:24:13.847Z,12.23
2019-04-29T13:25:06.852Z,16.15
2019-04-29T13:26:12.377Z,12.07
2019-04-29T13:27:20.744Z,13.45
2019-04-29T13:28:30.199Z,13.15
2019-04-29T13:29:32.125Z,14.35
2019-04-29T13:30:38.249Z,10.63
2019-04-29T13:31:43.351Z,17.02
2019-04-29T13:32:48.695Z,11.08
2019-04-29T13:33:55.378Z,10.72
2019-04-29T13:35:10.877Z,11.70
2019-04-29T13:36:13.174Z,11.35
2019-04-29T13:37:20.588Z,10.43
2019-04-29T13:38:25.169Z,10.15
2019-04-29T13:39:39.227Z,12.40
2019-04-29T13:40:38.936Z,15.20
2019-04-29T13:41:57.687Z,11.90
2019-04-29T13:42:51.091Z,13.90
2019-04-29T13:44:03.901Z,12.07
2019-04-29T13:45:12.128Z,11.33
2019-04-29T13:46:31.305Z,12.98
2019-04-29T13:47:53.886Z,14.98
2019-04-29T13:49:29.837Z,10.58
2019-04-29T13:50:40.998Z,10.40
2019-04-29T13:51:46.053Z,11.48
2019-04-29T13:52:51.073Z,10.20
2019-04-29T13:53:59.194Z,12.35
2019-04-29T13:55:16.649Z,11.70
2019-04-29T13:56:13.987Z,10.60
2019-04-29T13:57:16.975Z,11.60
2019-04-29T13:58:26.763Z,10.88
2019-04-29T13:59:36.285Z,12.37
2019-04-29T14:00:55.547Z,10.80
2019-04-29T14:02:07.460Z,13.78
2019-04-29T14:03:15.896Z,12.30
2019-04-29T14:04:26.206Z,11.22
2019-04-29T14:05:32.493Z,9.53
2019-04-29T14:06:40.834Z,9.93
2019-04-29T14:07:48.736Z,9.98
2019-04-29T14:08:54.254Z,7.87
2019-04-29T14:09:59.446Z,10.48
2019-04-29T14:11:04.746Z,9.63
2019-04-29T14:12:46.647Z,11.10
2019-04-29T14:13:20.612Z,10.10
2019-04-29T14:14:24.670Z,11.25
2019-04-29T14:15:33.952Z,10.00
2019-04-29T14:16:37.250Z,11.50
2019-04-29T14:17:42.466Z,12.20
2019-04-29T14:18:48.232Z,11.08
2019-04-29T14:19:57.029Z,11.68
2019-04-29T14:21:01.675Z,9.65
2019-04-29T14:22:21.076Z,11.05
2019-04-29T14:23:13.774Z,13.38
2019-04-29T14:24:19.017Z,11.75
2019-04-29T14:25:24.204Z,11.03
2019-04-29T14:26:29.661Z,9.40
2019-04-29T14:27:34.603Z,10.38
2019-04-29T14:28:39.686Z,10.90
2019-04-29T14:29:44.748Z,11.80
2019-04-29T14:30:49.791Z,10.90
2019-04-29T14:31:59.357Z,15.98
2019-04-29T14:33:04.090Z,12.70
2019-04-29T14:34:20.473Z,9.95
2019-04-29T14:35:36.936Z,10.80
2019-04-29T14:36:41.984Z,9.60
2019-04-29T14:37:54.832Z,11.28
2019-04-29T14:38:54.143Z,13.88
2019-04-29T14:40:02.846Z,9.20
2019-04-29T14:41:06.471Z,9.25
2019-04-29T14:42:25.633Z,9.13
2019-04-29T14:43:57.182Z,11.65
2019-04-29T14:45:24.141Z,10.20
2019-04-29T14:46:40.560Z,9.83
2019-04-29T14:48:10.751Z,8.70
2019-04-29T14:49:39.862Z,12.18
2019-04-29T14:50:44.706Z,9.23
2019-04-29T14:51:50.021Z,10.13
2019-04-29T14:52:55.332Z,9.28
2019-04-29T14:54:01.355Z,12.03